createdAt,value
2018-08-19T00:07:41.291Z,6.50
2018-08-19T00:10:24.485Z,6.40
2018-08-19T00:13:02.012Z,6.47
2018-08-19T00:15:42.173Z,6.50
2018-08-19T00:18:22.521Z,6.43
2018-08-19T00:21:01.249Z,6.67
2018-08-19T00:23:44.374Z,6.60
2018-08-19T00:26:27.575Z,6.70
2018-08-19T00:29:07.244Z,7.00
2018-08-19T00:31:49.280Z,6.53
2018-08-19T00:34:37.642Z,6.50
2018-08-19T00:37:18.059Z,6.83
2018-08-19T00:40:02.513Z,6.40
2018-08-19T00:42:42.872Z,6.50
2018-08-19T00:45:23.229Z,6.63
2018-08-19T00:48:00.517Z,6.57
2018-08-19T00:50:39.038Z,6.63
2018-08-19T00:53:17.244Z,6.53
2018-08-19T00:55:57.605Z,6.70
2018-08-19T00:58:38.886Z,6.43
2018-08-19T01:01:23.123Z,6.93
2018-08-19T01:21:18.730Z,6.10
2018-08-19T01:23:58.079Z,6.40
2018-08-19T01:26:39.482Z,7.23
2018-08-19T01:29:18.783Z,6.53
2018-08-19T01:32:00.317Z,6.80
2018-08-19T01:34:36.485Z,6.17
2018-08-19T01:37:16.120Z,6.70
2018-08-19T01:57:13.434Z,7.43
2018-08-19T01:59:53.816Z,6.40
2018-08-19T02:17:00.861Z,6.53
2018-08-19T02:36:57.496Z,6.60
2018-08-19T02:39:37.030Z,7.10
2018-08-19T02:42:33.370Z,6.63
2018-08-19T02:45:13.718Z,6.73
2018-08-19T02:47:41.724Z,6.83
2018-08-19T02:50:09.571Z,6.80
2018-08-19T02:52:37.380Z,6.73
2018-08-19T02:55:06.518Z,6.17
2018-08-19T02:57:35.025Z,7.50
2018-08-19T03:00:03.497Z,7.37
2018-08-19T03:02:33.461Z,6.93
2018-08-19T03:05:03.152Z,7.70
2018-08-19T03:07:31.801Z,7.33
2018-08-19T03:10:15.789Z,7.20
2018-08-19T03:12:44.029Z,7.60
2018-08-19T03:15:12.822Z,7.13
2018-08-19T03:17:41.125Z,7.23
2018-08-19T03:20:11.201Z,6.90
2018-08-19T03:22:39.000Z,7.47
2018-08-19T03:42:38.277Z,7.63
2018-08-19T04:02:34.858Z,7.40
2018-08-19T04:05:14.216Z,7.37
2018-08-19T04:07:55.886Z,7.40
2018-08-19T04:27:50.287Z,7.23
2018-08-19T04:30:29.518Z,7.37
2018-08-19T04:33:07.868Z,7.37
2018-08-19T04:35:47.218Z,7.30
2018-08-19T04:38:26.815Z,7.37
2018-08-19T04:41:06.916Z,7.70
2018-08-19T04:43:48.153Z,7.20
2018-08-19T04:46:25.643Z,7.63
2018-08-19T04:49:07.966Z,7.33
2018-08-19T04:51:48.315Z,7.97
2018-08-19T04:54:22.716Z,7.57
2018-08-19T05:05:38.121Z,7.67
2018-08-19T05:25:35.771Z,7.20
2018-08-19T05:28:14.154Z,6.87
2018-08-19T05:30:53.484Z,7.10
2018-08-19T05:33:34.789Z,7.00
2018-08-19T05:36:16.209Z,7.33
2018-08-19T05:38:54.882Z,7.00
2018-08-19T05:41:36.165Z,7.23
2018-08-19T05:44:15.606Z,7.17
2018-08-19T05:46:57.698Z,7.57
2018-08-19T05:49:40.028Z,6.87
2018-08-19T05:52:22.393Z,7.70
2018-08-19T06:12:24.066Z,7.60
2018-08-19T06:15:06.809Z,6.50
2018-08-19T06:17:41.950Z,5.83
2018-08-19T06:20:21.168Z,6.63
2018-08-19T06:23:02.360Z,6.23
2018-08-19T06:25:41.186Z,6.40
2018-08-19T06:28:21.544Z,6.17
2018-08-19T06:30:59.609Z,5.90
2018-08-19T06:33:47.911Z,6.07
2018-08-19T06:36:30.981Z,5.50
2018-08-19T06:56:29.931Z,5.17
2018-08-19T06:59:11.293Z,5.50
2018-08-19T07:01:49.716Z,5.53
2018-08-19T07:21:47.310Z,5.53
2018-08-19T07:27:14.160Z,4.75
2018-08-19T07:29:42.039Z,4.65
2018-08-19T07:32:10.820Z,4.97
2018-08-19T07:34:38.602Z,4.80
2018-08-19T07:37:06.539Z,4.72
2018-08-19T07:39:43.833Z,4.50
2018-08-19T07:42:11.867Z,5.05
2018-08-19T07:44:39.632Z,4.97
2018-08-19T07:47:07.398Z,5.67
2018-08-19T07:49:35.457Z,6.65
2018-08-19T07:52:03.384Z,5.92
2018-08-19T07:54:31.256Z,5.20
2018-08-19T07:57:03.961Z,5.25
2018-08-19T07:59:31.740Z,5.42
2018-08-19T08:01:59.477Z,5.37
2018-08-19T08:04:31.741Z,5.53
2018-08-19T08:06:59.628Z,5.22
2018-08-19T08:09:27.524Z,5.22
2018-08-19T08:11:55.323Z,5.35
2018-08-19T08:14:23.076Z,5.62
2018-08-19T08:16:54.292Z,5.08
2018-08-19T08:19:23.235Z,4.67
2018-08-19T08:21:51.049Z,5.70
2018-08-19T08:24:18.900Z,5.80
2018-08-19T08:26:51.141Z,5.87
2018-08-19T08:29:19.152Z,5.00
2018-08-19T08:32:01.423Z,5.28
2018-08-19T08:34:39.064Z,5.62
2018-08-19T08:37:22.233Z,4.85
2018-08-19T08:40:14.795Z,5.30
2018-08-19T08:42:53.999Z,5.37
2018-08-19T08:45:35.518Z,5.65
2018-08-19T08:48:12.799Z,7.12
2018-08-19T08:50:55.997Z,7.05
2018-08-19T08:53:45.334Z,7.47
2018-08-19T08:56:24.733Z,9.05
2018-08-19T08:59:05.093Z,7.35
2018-08-19T09:01:43.508Z,7.90
2018-08-19T09:04:23.875Z,7.03
2018-08-19T09:07:00.240Z,7.87
2018-08-19T09:09:44.282Z,7.80
2018-08-19T09:12:28.637Z,7.83
2018-08-19T09:15:08.067Z,7.90
2018-08-19T09:17:46.591Z,8.35
2018-08-19T09:20:26.030Z,8.88
2018-08-19T09:37:30.966Z,7.50
2018-08-19T09:57:26.552Z,6.95
2018-08-19T10:00:06.897Z,6.28
2018-08-19T10:02:52.437Z,6.33
2018-08-19T10:05:31.573Z,6.87
2018-08-19T10:08:10.092Z,6.28
2018-08-19T10:10:49.525Z,6.40
2018-08-19T10:13:26.816Z,6.08
2018-08-19T10:16:06.922Z,5.83
2018-08-19T10:18:47.301Z,6.40
2018-08-19T10:21:27.601Z,5.37
2018-08-19T10:24:13.171Z,6.12
2018-08-19T10:29:56.006Z,5.28
2018-08-19T10:35:25.328Z,4.90
2018-08-19T10:37:53.117Z,4.80
2018-08-19T10:40:34.052Z,5.20
2018-08-19T10:43:07.280Z,5.20
2018-08-19T10:45:44.650Z,5.30
2018-08-19T10:48:20.409Z,5.30
2018-08-19T10:50:58.611Z,5.62
2018-08-19T10:56:31.473Z,5.40
2018-08-19T10:59:00.008Z,5.95
2018-08-19T11:01:40.055Z,5.50
2018-08-19T11:04:19.160Z,5.35
2018-08-19T11:09:51.521Z,5.70
2018-08-19T11:12:19.267Z,6.28
2018-08-19T11:14:57.518Z,5.70
2018-08-19T11:17:38.833Z,5.80
2018-08-19T11:20:20.114Z,5.75
2018-08-19T11:22:47.968Z,5.67
2018-08-19T11:25:32.879Z,5.83
2018-08-19T11:28:21.269Z,7.12
2018-08-19T11:30:49.209Z,5.50
2018-08-19T11:33:27.197Z,6.53
2018-08-19T11:36:07.299Z,5.80
2018-08-19T11:38:47.583Z,6.28
2018-08-19T11:41:24.262Z,6.30
2018-08-19T11:44:05.268Z,5.42
2018-08-19T11:46:33.155Z,5.58
2018-08-19T11:49:13.565Z,5.53
2018-08-19T11:51:46.585Z,5.83
2018-08-19T11:54:27.609Z,5.50
2018-08-19T11:57:13.209Z,6.40
2018-08-19T12:00:01.556Z,5.45
2018-08-19T12:02:42.720Z,5.10
2018-08-19T12:05:28.971Z,5.60
2018-08-19T12:08:07.550Z,5.72
2018-08-19T12:10:49.744Z,5.83
2018-08-19T12:13:18.561Z,5.75
2018-08-19T12:18:49.917Z,5.20
2018-08-19T12:21:29.230Z,4.80
2018-08-19T12:24:17.697Z,6.05
2018-08-19T12:27:00.860Z,4.95
2018-08-19T12:29:42.200Z,5.00
2018-08-19T12:32:32.908Z,5.60
2018-08-19T12:35:12.042Z,5.60
2018-08-19T12:38:00.699Z,5.30
2018-08-19T12:40:42.601Z,5.47
2018-08-19T12:43:21.108Z,6.08
2018-08-19T12:45:49.697Z,5.80
2018-08-19T12:48:17.481Z,6.28
2018-08-19T12:50:56.337Z,5.83
2018-08-19T12:53:24.142Z,5.85
2018-08-19T12:55:51.888Z,6.40
2018-08-19T12:58:19.700Z,5.87
2018-08-19T13:00:47.467Z,5.40
2018-08-19T13:03:15.237Z,5.20
2018-08-19T13:05:57.728Z,5.55
2018-08-19T13:08:26.229Z,5.65
2018-08-19T13:11:09.551Z,5.40
2018-08-19T13:13:49.889Z,5.90
2018-08-19T13:22:15.002Z,5.58
2018-08-19T13:24:57.315Z,6.33
2018-08-19T13:27:40.659Z,5.87
2018-08-19T13:30:21.233Z,6.20
2018-08-19T13:33:00.676Z,5.45
2018-08-19T13:35:35.663Z,6.10
2018-08-19T13:38:15.269Z,6.00
2018-08-19T13:46:44.283Z,6.45
2018-08-19T13:49:25.415Z,6.15
2018-08-19T13:52:08.080Z,6.53
2018-08-19T13:55:08.403Z,6.33
2018-08-19T13:57:47.490Z,6.47
2018-08-19T14:00:33.122Z,6.70
2018-08-19T14:03:14.399Z,6.08
2018-08-19T14:05:55.513Z,6.62
2018-08-19T14:08:32.843Z,7.40
2018-08-19T14:11:13.180Z,6.53
2018-08-19T14:13:53.689Z,6.72
2018-08-19T14:16:30.300Z,6.50
2018-08-19T14:18:58.045Z,7.10
2018-08-19T14:21:35.510Z,6.53
2018-08-19T14:24:11.354Z,6.85
2018-08-19T14:32:43.582Z,6.67
2018-08-19T14:35:21.484Z,6.90
2018-08-19T14:37:50.014Z,7.03
2018-08-19T14:40:35.144Z,6.90
2018-08-19T14:43:13.656Z,6.70
2018-08-19T14:45:54.016Z,6.53
2018-08-19T14:48:30.696Z,6.80
2018-08-19T14:54:06.790Z,6.62
2018-08-19T14:56:44.293Z,6.33
2018-08-19T14:59:13.143Z,6.22
2018-08-19T15:01:46.834Z,6.92
2018-08-19T15:04:26.404Z,6.65
2018-08-19T15:06:54.943Z,6.45
2018-08-19T15:09:29.988Z,6.67
2018-08-19T15:12:05.536Z,6.67
2018-08-19T15:14:33.797Z,6.67
2018-08-19T15:19:55.150Z,6.75
2018-08-19T15:22:22.965Z,5.92
2018-08-19T15:24:51.181Z,6.47
2018-08-19T15:27:19.168Z,5.90
2018-08-19T15:29:48.987Z,6.30
2018-08-19T15:32:28.075Z,6.03
2018-08-19T15:35:08.086Z,6.50
2018-08-19T15:37:53.664Z,6.65
2018-08-19T15:40:38.805Z,6.37
2018-08-19T15:43:21.763Z,6.05
2018-08-19T15:45:57.817Z,6.12
2018-08-19T15:48:31.805Z,5.92
2018-08-19T15:51:04.065Z,5.92
2018-08-19T15:53:31.873Z,6.28
2018-08-19T16:05:02.481Z,5.90
2018-08-19T16:07:30.260Z,5.83
2018-08-19T16:10:08.742Z,5.70
2018-08-19T16:12:56.871Z,6.03
2018-08-19T16:15:35.205Z,5.72
2018-08-19T16:18:18.426Z,6.00
2018-08-19T16:21:01.947Z,5.75
2018-08-19T16:23:50.221Z,5.70
2018-08-19T16:26:27.180Z,5.87
2018-08-19T16:29:08.157Z,5.92
2018-08-19T16:31:47.231Z,5.47
2018-08-19T16:37:26.194Z,5.33
2018-08-19T16:40:07.413Z,6.15
2018-08-19T16:42:50.556Z,5.45
2018-08-19T16:45:18.431Z,5.78
2018-08-19T16:47:47.540Z,5.87
2018-08-19T16:50:15.367Z,5.75
2018-08-19T16:52:43.177Z,5.80
2018-08-19T16:55:10.968Z,5.50
2018-08-19T16:57:38.846Z,6.03
2018-08-19T17:00:07.848Z,5.78
2018-08-19T17:02:35.705Z,5.90
2018-08-19T17:05:05.956Z,6.10
2018-08-19T17:07:34.091Z,5.97
2018-08-19T17:10:01.848Z,5.55
2018-08-19T17:12:29.694Z,5.72
2018-08-19T17:14:57.489Z,5.50
2018-08-19T17:17:25.333Z,6.35
2018-08-19T17:19:53.135Z,5.50
2018-08-19T17:22:20.935Z,6.10
2018-08-19T17:24:48.680Z,5.78
2018-08-19T17:27:16.604Z,6.05
2018-08-19T17:29:44.368Z,5.97
2018-08-19T17:32:12.136Z,6.07
2018-08-19T17:34:40.835Z,5.63
2018-08-19T17:37:18.584Z,5.78
2018-08-19T17:39:46.360Z,6.20
2018-08-19T17:42:14.125Z,6.27
2018-08-19T17:44:42.085Z,6.00
2018-08-19T17:47:10.267Z,5.47
2018-08-19T17:49:38.197Z,5.90
2018-08-19T17:52:06.288Z,5.80
2018-08-19T17:54:34.341Z,6.60
2018-08-19T17:57:02.486Z,5.90
2018-08-19T17:59:30.312Z,6.47
2018-08-19T18:01:58.048Z,5.77
2018-08-19T18:04:32.333Z,5.73
2018-08-19T18:07:00.256Z,6.87
2018-08-19T18:09:28.005Z,6.87
2018-08-19T18:12:00.308Z,5.53
2018-08-19T18:14:29.872Z,5.73
2018-08-19T18:16:59.648Z,5.97
2018-08-19T18:19:27.632Z,6.90
2018-08-19T18:21:55.488Z,6.60
2018-08-19T18:24:23.303Z,6.17
2018-08-19T18:26:51.073Z,6.23
2018-08-19T18:29:18.812Z,5.90
2018-08-19T18:31:49.353Z,5.90
2018-08-19T18:34:17.202Z,6.47
2018-08-19T18:36:44.945Z,5.63
2018-08-19T18:39:12.805Z,5.30
2018-08-19T18:41:43.314Z,5.77
2018-08-19T18:44:11.984Z,6.03
2018-08-19T18:46:39.762Z,5.30
2018-08-19T18:49:14.400Z,5.27
2018-08-19T18:51:45.544Z,5.97
2018-08-19T18:54:20.261Z,5.50
2018-08-19T18:56:51.361Z,5.30
2018-08-19T18:59:19.167Z,5.57
2018-08-19T19:01:46.937Z,5.03
2018-08-19T19:04:14.773Z,5.30
2018-08-19T19:06:43.909Z,5.10
2018-08-19T19:09:11.671Z,5.13
2018-08-19T19:11:39.449Z,5.40
2018-08-19T19:14:18.814Z,5.43
2018-08-19T19:16:49.648Z,4.87
2018-08-19T19:19:17.764Z,5.50
2018-08-19T19:22:04.172Z,5.33
2018-08-19T19:24:36.992Z,5.00
2018-08-19T19:27:04.849Z,5.57
2018-08-19T19:29:32.632Z,5.30
2018-08-19T19:32:10.409Z,5.40
2018-08-19T19:34:38.254Z,4.70
2018-08-19T19:37:06.069Z,5.43
2018-08-19T19:39:33.816Z,5.20
2018-08-19T19:42:09.086Z,4.77
2018-08-19T19:44:37.368Z,5.50
2018-08-19T19:47:06.702Z,5.87
2018-08-19T19:49:42.775Z,5.30
2018-08-19T19:52:10.817Z,5.23
2018-08-19T19:54:38.652Z,5.90
2018-08-19T19:57:06.505Z,5.20
2018-08-19T19:59:34.492Z,5.00
2018-08-19T20:02:02.315Z,5.00
2018-08-19T20:04:33.541Z,5.30
2018-08-19T20:07:01.336Z,5.87
2018-08-19T20:09:29.942Z,5.93
2018-08-19T20:11:57.763Z,5.30
2018-08-19T20:14:26.381Z,5.03
2018-08-19T20:16:54.483Z,5.40
2018-08-19T20:19:22.379Z,5.90
2018-08-19T20:21:50.217Z,5.03
2018-08-19T20:24:18.005Z,5.50
2018-08-19T20:26:45.788Z,5.20
2018-08-19T20:29:13.840Z,5.73
2018-08-19T20:31:41.728Z,5.40
2018-08-19T20:34:09.554Z,6.03
2018-08-19T20:36:37.906Z,6.03
2018-08-19T20:39:06.626Z,5.33
2018-08-19T20:41:34.608Z,5.90
2018-08-19T20:44:06.528Z,5.60
2018-08-19T20:46:40.781Z,5.60
2018-08-19T20:49:08.829Z,5.43
2018-08-19T20:51:40.141Z,5.43
2018-08-19T20:54:07.896Z,5.60
2018-08-19T20:56:35.684Z,5.20
2018-08-19T20:59:03.544Z,5.37
2018-08-19T21:01:31.376Z,5.17
2018-08-19T21:03:59.245Z,5.80
2018-08-19T21:06:27.071Z,5.87
2018-08-19T21:08:54.853Z,5.60
2018-08-19T21:11:22.717Z,6.27
2018-08-19T21:13:50.532Z,5.60
2018-08-19T21:16:18.344Z,5.63
2018-08-19T21:18:46.100Z,5.53
2018-08-19T21:21:13.861Z,5.87
2018-08-19T21:23:41.598Z,6.20
2018-08-19T21:26:09.381Z,5.80
2018-08-19T21:28:37.144Z,5.90
2018-08-19T21:31:04.954Z,5.80
2018-08-19T21:33:32.720Z,5.73
2018-08-19T21:36:00.691Z,6.33
2018-08-19T21:38:28.430Z,6.27
2018-08-19T21:40:57.084Z,6.17
2018-08-19T21:43:26.935Z,6.00
2018-08-19T21:45:54.694Z,6.10
2018-08-19T21:48:22.472Z,5.80
2018-08-19T21:50:50.295Z,6.00
2018-08-19T21:53:19.024Z,5.90
2018-08-19T21:55:48.960Z,5.97
2018-08-19T21:58:16.768Z,5.90
2018-08-19T22:00:47.565Z,5.83
2018-08-19T22:03:21.551Z,6.40
2018-08-19T22:05:50.745Z,5.93
2018-08-19T22:08:18.648Z,5.80
2018-08-19T22:10:47.553Z,5.87
2018-08-19T22:13:15.841Z,5.90
2018-08-19T22:15:44.643Z,5.90
2018-08-19T22:18:15.261Z,6.10
2018-08-19T22:21:17.661Z,6.33
2018-08-19T22:23:46.572Z,5.87
2018-08-19T22:26:15.563Z,6.07
2018-08-19T22:28:44.326Z,5.70
2018-08-19T22:31:25.896Z,6.03
2018-08-19T22:33:55.932Z,6.00
2018-08-19T22:36:24.988Z,6.03
2018-08-19T22:38:53.600Z,6.77
2018-08-19T22:41:24.058Z,6.10
2018-08-19T22:43:52.723Z,6.57
2018-08-19T22:46:27.583Z,6.37
2018-08-19T22:48:56.038Z,6.80
2018-08-19T22:51:23.977Z,6.43
2018-08-19T22:53:53.057Z,6.30
2018-08-19T22:56:21.253Z,6.03
2018-08-19T22:58:49.046Z,6.60
2018-08-19T23:01:16.972Z,6.90
2018-08-19T23:03:44.871Z,6.87
2018-08-19T23:06:12.733Z,6.70
2018-08-19T23:08:40.501Z,7.17
2018-08-19T23:11:08.398Z,6.87
2018-08-19T23:13:47.336Z,6.30
2018-08-19T23:16:15.144Z,6.87
2018-08-19T23:18:43.024Z,6.67
2018-08-19T23:21:11.120Z,6.90
2018-08-19T23:23:38.980Z,6.40
2018-08-19T23:26:06.816Z,6.63
2018-08-19T23:28:34.632Z,6.70
2018-08-19T23:31:02.404Z,6.17
2018-08-19T23:33:30.240Z,6.20
2018-08-19T23:35:57.982Z,6.53
2018-08-19T23:38:26.096Z,6.60
2018-08-19T23:40:53.888Z,5.97
2018-08-19T23:43:21.688Z,6.47
2018-08-19T23:45:49.448Z,6.50
2018-08-19T23:48:17.273Z,6.40
2018-08-19T23:50:45.066Z,7.10
2018-08-19T23:53:12.836Z,6.70
2018-08-19T23:55:40.608Z,6.37
2018-08-19T23:58:08.768Z,6.67
